sensor_id;sensor_type;location;lat;lon;timestamp;P1;durP1;ratioP1;P2;durP2;ratioP2
1082;SDS011;530;51.448;7.238;2023-04-24T00:00:14;1.57;;;0.80;;
1082;SDS011;530;51.448;7.238;2023-04-24T00:02:44;0.90;;;0.70;;
1082;SDS011;530;51.448;7.238;2023-04-24T00:05:12;1.10;;;0.80;;
1082;SDS011;530;51.448;7.238;2023-04-24T00:07:43;1.13;;;0.80;;
1082;SDS011;530;51.448;7.238;2023-04-24T00:10:10;1.17;;;0.70;;
1082;SDS011;530;51.448;7.238;2023-04-24T00:12:36;2.50;;;1.30;;
1082;SDS011;530;51.448;7.238;2023-04-24T00:15:03;1.40;;;0.80;;
1082;SDS011;530;51.448;7.238;2023-04-24T00:17:29;1.90;;;1.00;;
1082;SDS011;530;51.448;7.238;2023-04-24T00:19:55;1.37;;;0.90;;
1082;SDS011;530;51.448;7.238;2023-04-24T00:22:24;1.83;;;1.10;;
1082;SDS011;530;51.448;7.238;2023-04-24T00:24:51;1.00;;;0.83;;
1082;SDS011;530;51.448;7.238;2023-04-24T00:27:16;1.20;;;1.10;;
1082;SDS011;530;51.448;7.238;2023-04-24T00:29:42;1.23;;;1.10;;
1082;SDS011;530;51.448;7.238;2023-04-24T00:32:07;1.10;;;0.90;;
1082;SDS011;530;51.448;7.238;2023-04-24T00:34:33;1.27;;;0.93;;
1082;SDS011;530;51.448;7.238;2023-04-24T00:36:59;1.20;;;1.00;;
1082;SDS011;530;51.448;7.238;2023-04-24T00:39:26;1.33;;;1.10;;
1082;SDS011;530;51.448;7.238;2023-04-24T00:41:51;1.60;;;1.50;;
1082;SDS011;530;51.448;7.238;2023-04-24T00:44:18;4.20;;;1.77;;
1082;SDS011;530;51.448;7.238;2023-04-24T00:46:43;1.60;;;1.50;;
1082;SDS011;530;51.448;7.238;2023-04-24T00:49:09;2.27;;;1.20;;
1082;SDS011;530;51.448;7.238;2023-04-24T00:51:35;1.57;;;1.40;;
1082;SDS011;530;51.448;7.238;2023-04-24T00:54:01;1.37;;;1.27;;
1082;SDS011;530;51.448;7.238;2023-04-24T00:56:27;1.33;;;1.23;;
1082;SDS011;530;51.448;7.238;2023-04-24T00:58:53;2.27;;;1.50;;
1082;SDS011;530;51.448;7.238;2023-04-24T01:01:20;1.80;;;1.50;;
1082;SDS011;530;51.448;7.238;2023-04-24T01:03:46;1.57;;;1.47;;
1082;SDS011;530;51.448;7.238;2023-04-24T01:06:13;2.23;;;1.60;;
1082;SDS011;530;51.448;7.238;2023-04-24T01:08:40;1.77;;;1.67;;
1082;SDS011;530;51.448;7.238;2023-04-24T01:11:06;2.00;;;1.80;;
1082;SDS011;530;51.448;7.238;2023-04-24T01:13:32;1.50;;;1.33;;
1082;SDS011;530;51.448;7.238;2023-04-24T01:15:59;3.03;;;1.37;;
1082;SDS011;530;51.448;7.238;2023-04-24T01:18:26;1.60;;;1.50;;
1082;SDS011;530;51.448;7.238;2023-04-24T01:20:53;1.70;;;1.40;;
1082;SDS011;530;51.448;7.238;2023-04-24T01:23:22;1.67;;;1.57;;
1082;SDS011;530;51.448;7.238;2023-04-24T01:25:48;2.77;;;1.90;;
1082;SDS011;530;51.448;7.238;2023-04-24T01:28:14;2.07;;;1.70;;
1082;SDS011;530;51.448;7.238;2023-04-24T01:30:41;1.63;;;1.40;;
1082;SDS011;530;51.448;7.238;2023-04-24T01:33:07;1.60;;;1.50;;
1082;SDS011;530;51.448;7.238;2023-04-24T01:35:33;2.20;;;2.00;;
1082;SDS011;530;51.448;7.238;2023-04-24T01:38:01;2.93;;;1.87;;
1082;SDS011;530;51.448;7.238;2023-04-24T01:40:27;4.37;;;2.83;;
1082;SDS011;530;51.448;7.238;2023-04-24T01:42:53;3.37;;;2.37;;
1082;SDS011;530;51.448;7.238;2023-04-24T01:45:19;1.97;;;1.77;;
1082;SDS011;530;51.448;7.238;2023-04-24T01:47:45;2.10;;;2.00;;
1082;SDS011;530;51.448;7.238;2023-04-24T01:50:11;3.37;;;2.70;;
1082;SDS011;530;51.448;7.238;2023-04-24T01:52:37;2.30;;;1.90;;
1082;SDS011;530;51.448;7.238;2023-04-24T01:55:03;2.40;;;1.73;;
1082;SDS011;530;51.448;7.238;2023-04-24T01:57:30;2.33;;;2.13;;
1082;SDS011;530;51.448;7.238;2023-04-24T01:59:56;2.33;;;2.13;;
1082;SDS011;530;51.448;7.238;2023-04-24T02:02:22;2.50;;;2.00;;
1082;SDS011;530;51.448;7.238;2023-04-24T02:04:55;2.00;;;1.90;;
1082;SDS011;530;51.448;7.238;2023-04-24T02:07:21;2.10;;;1.90;;
1082;SDS011;530;51.448;7.238;2023-04-24T02:09:47;2.80;;;2.50;;
1082;SDS011;530;51.448;7.238;2023-04-24T02:12:13;5.77;;;3.57;;
1082;SDS011;530;51.448;7.238;2023-04-24T02:14:40;4.47;;;3.10;;
1082;SDS011;530;51.448;7.238;2023-04-24T02:17:07;7.20;;;3.80;;
1082;SDS011;530;51.448;7.238;2023-04-24T02:19:33;3.90;;;3.60;;
1082;SDS011;530;51.448;7.238;2023-04-24T02:21:58;3.90;;;3.50;;
1082;SDS011;530;51.448;7.238;2023-04-24T02:24:24;7.80;;;5.63;;
1082;SDS011;530;51.448;7.238;2023-04-24T02:26:50;5.00;;;4.47;;
1082;SDS011;530;51.448;7.238;2023-04-24T02:29:15;5.50;;;4.90;;
1082;SDS011;530;51.448;7.238;2023-04-24T02:31:41;5.80;;;5.20;;
1082;SDS011;530;51.448;7.238;2023-04-24T02:34:06;7.10;;;4.47;;
1082;SDS011;530;51.448;7.238;2023-04-24T02:36:32;5.80;;;4.80;;
1082;SDS011;530;51.448;7.238;2023-04-24T02:38:58;6.00;;;5.37;;
1082;SDS011;530;51.448;7.238;2023-04-24T02:41:23;5.93;;;5.33;;
1082;SDS011;530;51.448;7.238;2023-04-24T02:43:49;6.20;;;5.60;;
1082;SDS011;530;51.448;7.238;2023-04-24T02:46:15;6.63;;;5.07;;
1082;SDS011;530;51.448;7.238;2023-04-24T02:48:41;5.37;;;4.83;;
1082;SDS011;530;51.448;7.238;2023-04-24T02:51:06;6.60;;;5.47;;
1082;SDS011;530;51.448;7.238;2023-04-24T02:53:32;6.63;;;6.00;;
1082;SDS011;530;51.448;7.238;2023-04-24T02:55:58;7.70;;;6.10;;
1082;SDS011;530;51.448;7.238;2023-04-24T02:58:23;7.10;;;6.40;;
1082;SDS011;530;51.448;7.238;2023-04-24T03:00:52;9.13;;;6.90;;
1082;SDS011;530;51.448;7.238;2023-04-24T03:03:20;6.77;;;6.10;;
1082;SDS011;530;51.448;7.238;2023-04-24T03:05:46;8.23;;;6.77;;
1082;SDS011;530;51.448;7.238;2023-04-24T03:08:12;8.77;;;6.60;;
1082;SDS011;530;51.448;7.238;2023-04-24T03:10:39;7.63;;;6.77;;
1082;SDS011;530;51.448;7.238;2023-04-24T03:13:05;7.53;;;6.57;;
1082;SDS011;530;51.448;7.238;2023-04-24T03:15:31;7.70;;;7.00;;
1082;SDS011;530;51.448;7.238;2023-04-24T03:17:56;7.60;;;6.80;;
1082;SDS011;530;51.448;7.238;2023-04-24T03:20:22;8.10;;;6.87;;
1082;SDS011;530;51.448;7.238;2023-04-24T03:22:48;9.70;;;6.83;;
1082;SDS011;530;51.448;7.238;2023-04-24T03:25:14;7.37;;;6.67;;
1082;SDS011;530;51.448;7.238;2023-04-24T03:27:39;10.47;;;6.80;;
1082;SDS011;530;51.448;7.238;2023-04-24T03:30:08;10.37;;;7.20;;
1082;SDS011;530;51.448;7.238;2023-04-24T03:32:34;9.70;;;7.10;;
1082;SDS011;530;51.448;7.238;2023-04-24T03:34:59;7.87;;;7.07;;
1082;SDS011;530;51.448;7.238;2023-04-24T03:37:25;11.60;;;8.53;;
1082;SDS011;530;51.448;7.238;2023-04-24T03:39:51;8.73;;;7.57;;
1082;SDS011;530;51.448;7.238;2023-04-24T03:42:17;10.00;;;7.80;;
1082;SDS011;530;51.448;7.238;2023-04-24T03:44:43;9.13;;;7.60;;
1082;SDS011;530;51.448;7.238;2023-04-24T03:47:09;9.20;;;8.30;;
1082;SDS011;530;51.448;7.238;2023-04-24T03:49:34;10.53;;;8.57;;
1082;SDS011;530;51.448;7.238;2023-04-24T03:52:00;9.63;;;8.00;;
1082;SDS011;530;51.448;7.238;2023-04-24T03:54:26;11.13;;;9.37;;
1082;SDS011;530;51.448;7.238;2023-04-24T03:56:52;10.17;;;8.17;;
1082;SDS011;530;51.448;7.238;2023-04-24T03:59:17;11.23;;;8.63;;
1082;SDS011;530;51.448;7.238;2023-04-24T04:01:43;10.03;;;8.30;;
1082;SDS011;530;51.448;7.238;2023-04-24T04:04:08;10.30;;;8.07;;
1082;SDS011;530;51.448;7.238;2023-04-24T04:06:34;10.03;;;8.80;;
1082;SDS011;530;51.448;7.238;2023-04-24T04:09:01;9.73;;;7.80;;
1082;SDS011;530;51.448;7.238;2023-04-24T04:11:28;8.93;;;7.93;;
1082;SDS011;530;51.448;7.238;2023-04-24T04:13:54;10.17;;;8.30;;
1082;SDS011;530;51.448;7.238;2023-04-24T04:16:19;9.10;;;8.20;;
1082;SDS011;530;51.448;7.238;2023-04-24T04:18:45;11.50;;;8.10;;
1082;SDS011;530;51.448;7.238;2023-04-24T04:21:11;10.13;;;9.13;;
1082;SDS011;530;51.448;7.238;2023-04-24T04:23:36;10.20;;;9.10;;
1082;SDS011;530;51.448;7.238;2023-04-24T04:26:02;10.20;;;9.20;;
1082;SDS011;530;51.448;7.238;2023-04-24T04:28:29;10.33;;;8.80;;
1082;SDS011;530;51.448;7.238;2023-04-24T04:30:56;10.40;;;8.90;;
1082;SDS011;530;51.448;7.238;2023-04-24T04:33:23;9.33;;;8.10;;
1082;SDS011;530;51.448;7.238;2023-04-24T04:35:49;11.40;;;9.50;;
1082;SDS011;530;51.448;7.238;2023-04-24T04:38:18;9.80;;;8.60;;
1082;SDS011;530;51.448;7.238;2023-04-24T04:40:45;13.00;;;8.87;;
1082;SDS011;530;51.448;7.238;2023-04-24T04:43:11;10.53;;;8.53;;
1082;SDS011;530;51.448;7.238;2023-04-24T04:45:38;9.83;;;8.80;;
1082;SDS011;530;51.448;7.238;2023-04-24T04:48:05;12.20;;;10.00;;
1082;SDS011;530;51.448;7.238;2023-04-24T04:50:32;11.50;;;8.80;;
1082;SDS011;530;51.448;7.238;2023-04-24T04:52:58;11.00;;;8.63;;
1082;SDS011;530;51.448;7.238;2023-04-24T04:55:24;12.93;;;9.13;;
1082;SDS011;530;51.448;7.238;2023-04-24T04:57:50;10.70;;;9.60;;
1082;SDS011;530;51.448;7.238;2023-04-24T05:00:16;10.60;;;9.17;;
1082;SDS011;530;51.448;7.238;2023-04-24T05:02:41;11.20;;;9.27;;
1082;SDS011;530;51.448;7.238;2023-04-24T05:05:07;10.40;;;9.40;;
1082;SDS011;530;51.448;7.238;2023-04-24T05:07:33;13.53;;;9.00;;
1082;SDS011;530;51.448;7.238;2023-04-24T05:09:59;11.77;;;9.67;;
1082;SDS011;530;51.448;7.238;2023-04-24T05:12:25;9.77;;;8.47;;
1082;SDS011;530;51.448;7.238;2023-04-24T05:14:51;10.37;;;9.03;;
1082;SDS011;530;51.448;7.238;2023-04-24T05:17:17;9.63;;;8.50;;
1082;SDS011;530;51.448;7.238;2023-04-24T05:19:43;10.80;;;9.20;;
1082;SDS011;530;51.448;7.238;2023-04-24T05:22:09;8.70;;;7.73;;
1082;SDS011;530;51.448;7.238;2023-04-24T05:24:36;9.60;;;8.17;;
1082;SDS011;530;51.448;7.238;2023-04-24T05:27:02;11.07;;;8.80;;
1082;SDS011;530;51.448;7.238;2023-04-24T05:29:29;8.03;;;7.23;;
1082;SDS011;530;51.448;7.238;2023-04-24T05:31:56;10.57;;;8.23;;
1082;SDS011;530;51.448;7.238;2023-04-24T05:34:22;7.80;;;7.10;;
1082;SDS011;530;51.448;7.238;2023-04-24T05:36:48;8.70;;;7.80;;
1082;SDS011;530;51.448;7.238;2023-04-24T05:39:15;9.50;;;8.43;;
1082;SDS011;530;51.448;7.238;2023-04-24T05:41:41;8.73;;;7.70;;
1082;SDS011;530;51.448;7.238;2023-04-24T05:44:07;8.83;;;7.90;;
1082;SDS011;530;51.448;7.238;2023-04-24T05:46:33;9.30;;;8.23;;
1082;SDS011;530;51.448;7.238;2023-04-24T05:48:58;8.93;;;8.07;;
1082;SDS011;530;51.448;7.238;2023-04-24T05:51:24;9.90;;;8.30;;
1082;SDS011;530;51.448;7.238;2023-04-24T05:53:51;9.70;;;8.60;;
1082;SDS011;530;51.448;7.238;2023-04-24T05:56:16;8.90;;;7.93;;
1082;SDS011;530;51.448;7.238;2023-04-24T05:58:43;9.80;;;8.80;;
1082;SDS011;530;51.448;7.238;2023-04-24T06:01:10;8.83;;;7.90;;
1082;SDS011;530;51.448;7.238;2023-04-24T06:03:35;9.23;;;8.33;;
1082;SDS011;530;51.448;7.238;2023-04-24T06:06:01;11.23;;;8.23;;
1082;SDS011;530;51.448;7.238;2023-04-24T06:08:27;12.57;;;9.40;;
1082;SDS011;530;51.448;7.238;2023-04-24T06:10:52;9.07;;;7.13;;
1082;SDS011;530;51.448;7.238;2023-04-24T06:13:18;8.30;;;7.50;;
1082;SDS011;530;51.448;7.238;2023-04-24T06:15:44;9.53;;;7.47;;
1082;SDS011;530;51.448;7.238;2023-04-24T06:18:10;9.73;;;7.33;;
1082;SDS011;530;51.448;7.238;2023-04-24T06:20:36;15.10;;;7.40;;
1082;SDS011;530;51.448;7.238;2023-04-24T06:23:01;10.23;;;7.13;;
1082;SDS011;530;51.448;7.238;2023-04-24T06:25:27;7.83;;;7.00;;
1082;SDS011;530;51.448;7.238;2023-04-24T06:27:53;6.83;;;6.10;;
1082;SDS011;530;51.448;7.238;2023-04-24T06:30:19;7.50;;;6.80;;
1082;SDS011;530;51.448;7.238;2023-04-24T06:32:45;7.57;;;6.27;;
1082;SDS011;530;51.448;7.238;2023-04-24T06:35:11;8.40;;;5.80;;
1082;SDS011;530;51.448;7.238;2023-04-24T06:37:38;7.23;;;6.37;;
1082;SDS011;530;51.448;7.238;2023-04-24T06:40:05;8.10;;;5.90;;
1082;SDS011;530;51.448;7.238;2023-04-24T06:42:31;7.63;;;6.30;;
1082;SDS011;530;51.448;7.238;2023-04-24T06:44:57;7.00;;;6.30;;
1082;SDS011;530;51.448;7.238;2023-04-24T06:47:22;7.27;;;6.50;;
1082;SDS011;530;51.448;7.238;2023-04-24T06:49:48;7.40;;;6.40;;
1082;SDS011;530;51.448;7.238;2023-04-24T06:52:15;9.20;;;6.33;;
1082;SDS011;530;51.448;7.238;2023-04-24T06:54:41;7.90;;;7.10;;
1082;SDS011;530;51.448;7.238;2023-04-24T06:57:08;7.73;;;6.23;;
1082;SDS011;530;51.448;7.238;2023-04-24T06:59:33;7.27;;;6.50;;
1082;SDS011;530;51.448;7.238;2023-04-24T07:01:59;7.37;;;6.63;;
1082;SDS011;530;51.448;7.238;2023-04-24T07:04:25;8.40;;;6.37;;
1082;SDS011;530;51.448;7.238;2023-04-24T07:06:51;7.77;;;6.60;;
1082;SDS011;530;51.448;7.238;2023-04-24T07:09:19;6.60;;;5.90;;
1082;SDS011;530;51.448;7.238;2023-04-24T07:11:45;6.80;;;6.10;;
1082;SDS011;530;51.448;7.238;2023-04-24T07:14:11;6.57;;;6.00;;
1082;SDS011;530;51.448;7.238;2023-04-24T07:16:37;7.60;;;6.00;;
1082;SDS011;530;51.448;7.238;2023-04-24T07:19:03;6.27;;;5.70;;
1082;SDS011;530;51.448;7.238;2023-04-24T07:21:29;6.10;;;4.93;;
1082;SDS011;530;51.448;7.238;2023-04-24T07:23:57;4.90;;;4.50;;
1082;SDS011;530;51.448;7.238;2023-04-24T07:26:23;4.73;;;4.23;;
1082;SDS011;530;51.448;7.238;2023-04-24T07:28:49;4.80;;;4.30;;
1082;SDS011;530;51.448;7.238;2023-04-24T07:31:14;4.00;;;3.60;;
1082;SDS011;530;51.448;7.238;2023-04-24T07:33:40;4.20;;;3.80;;
1082;SDS011;530;51.448;7.238;2023-04-24T07:36:06;5.30;;;4.20;;
1082;SDS011;530;51.448;7.238;2023-04-24T07:38:32;3.77;;;3.37;;
1082;SDS011;530;51.448;7.238;2023-04-24T07:40:57;4.20;;;3.80;;
1082;SDS011;530;51.448;7.238;2023-04-24T07:43:23;4.63;;;4.10;;
1082;SDS011;530;51.448;7.238;2023-04-24T07:45:52;4.57;;;4.17;;
1082;SDS011;530;51.448;7.238;2023-04-24T07:48:17;3.80;;;3.50;;
1082;SDS011;530;51.448;7.238;2023-04-24T07:50:44;3.80;;;3.50;;
1082;SDS011;530;51.448;7.238;2023-04-24T07:53:10;2.80;;;2.60;;
1082;SDS011;530;51.448;7.238;2023-04-24T07:55:35;2.80;;;2.50;;
1082;SDS011;530;51.448;7.238;2023-04-24T07:58:01;2.53;;;2.10;;
1082;SDS011;530;51.448;7.238;2023-04-24T08:00:27;2.00;;;1.80;;
1082;SDS011;530;51.448;7.238;2023-04-24T08:02:52;2.73;;;2.00;;
1082;SDS011;530;51.448;7.238;2023-04-24T08:05:18;1.60;;;1.27;;
1082;SDS011;530;51.448;7.238;2023-04-24T08:07:45;1.53;;;1.20;;
1082;SDS011;530;51.448;7.238;2023-04-24T08:10:13;1.00;;;0.70;;
1082;SDS011;530;51.448;7.238;2023-04-24T08:12:40;1.23;;;0.70;;
1082;SDS011;530;51.448;7.238;2023-04-24T08:15:06;1.37;;;0.60;;
1082;SDS011;530;51.448;7.238;2023-04-24T08:17:32;1.03;;;0.60;;
1082;SDS011;530;51.448;7.238;2023-04-24T08:19:59;0.60;;;0.53;;
1082;SDS011;530;51.448;7.238;2023-04-24T08:22:29;0.83;;;0.73;;
1082;SDS011;530;51.448;7.238;2023-04-24T08:24:55;1.17;;;0.90;;
1082;SDS011;530;51.448;7.238;2023-04-24T08:27:22;1.63;;;0.80;;
1082;SDS011;530;51.448;7.238;2023-04-24T08:29:48;0.80;;;0.77;;
1082;SDS011;530;51.448;7.238;2023-04-24T08:32:14;1.20;;;0.60;;
1082;SDS011;530;51.448;7.238;2023-04-24T08:34:40;1.80;;;0.63;;
1082;SDS011;530;51.448;7.238;2023-04-24T08:37:05;0.70;;;0.70;;
1082;SDS011;530;51.448;7.238;2023-04-24T08:39:31;1.30;;;0.60;;
1082;SDS011;530;51.448;7.238;2023-04-24T08:41:57;1.43;;;0.60;;
1082;SDS011;530;51.448;7.238;2023-04-24T08:44:30;2.10;;;1.00;;
1082;SDS011;530;51.448;7.238;2023-04-24T08:46:57;0.97;;;0.87;;
1082;SDS011;530;51.448;7.238;2023-04-24T08:49:23;0.80;;;0.70;;
1082;SDS011;530;51.448;7.238;2023-04-24T08:51:50;1.33;;;1.07;;
1082;SDS011;530;51.448;7.238;2023-04-24T08:54:17;1.37;;;0.73;;
1082;SDS011;530;51.448;7.238;2023-04-24T08:56:43;1.13;;;0.90;;
1082;SDS011;530;51.448;7.238;2023-04-24T08:59:10;1.17;;;0.90;;
1082;SDS011;530;51.448;7.238;2023-04-24T09:01:37;1.63;;;1.10;;
1082;SDS011;530;51.448;7.238;2023-04-24T09:04:04;1.17;;;0.90;;
1082;SDS011;530;51.448;7.238;2023-04-24T09:06:32;1.70;;;1.17;;
1082;SDS011;530;51.448;7.238;2023-04-24T09:09:00;0.80;;;0.80;;
1082;SDS011;530;51.448;7.238;2023-04-24T09:11:27;1.67;;;1.40;;
1082;SDS011;530;51.448;7.238;2023-04-24T09:13:53;1.30;;;1.20;;
1082;SDS011;530;51.448;7.238;2023-04-24T09:16:20;1.57;;;1.40;;
1082;SDS011;530;51.448;7.238;2023-04-24T09:18:48;1.57;;;1.30;;
1082;SDS011;530;51.448;7.238;2023-04-24T09:21:13;3.00;;;1.70;;
1082;SDS011;530;51.448;7.238;2023-04-24T09:23:40;1.57;;;1.47;;
1082;SDS011;530;51.448;7.238;2023-04-24T09:26:06;1.63;;;1.53;;
1082;SDS011;530;51.448;7.238;2023-04-24T09:28:37;2.80;;;1.20;;
1082;SDS011;530;51.448;7.238;2023-04-24T09:31:14;2.67;;;1.33;;
1082;SDS011;530;51.448;7.238;2023-04-24T09:36:46;1.60;;;1.50;;
1082;SDS011;530;51.448;7.238;2023-04-24T09:39:12;1.57;;;1.47;;
1082;SDS011;530;51.448;7.238;2023-04-24T09:41:52;2.00;;;1.80;;
1082;SDS011;530;51.448;7.238;2023-04-24T09:46:49;1.93;;;1.80;;
1082;SDS011;530;51.448;7.238;2023-04-24T09:49:28;3.03;;;2.50;;
1082;SDS011;530;51.448;7.238;2023-04-24T09:54:29;4.63;;;3.40;;
1082;SDS011;530;51.448;7.238;2023-04-24T09:56:55;3.90;;;3.60;;
1082;SDS011;530;51.448;7.238;2023-04-24T09:59:22;4.30;;;3.33;;
1082;SDS011;530;51.448;7.238;2023-04-24T10:01:48;3.40;;;3.10;;
1082;SDS011;530;51.448;7.238;2023-04-24T10:04:21;4.20;;;3.27;;
1082;SDS011;530;51.448;7.238;2023-04-24T10:06:49;3.73;;;3.43;;
1082;SDS011;530;51.448;7.238;2023-04-24T10:09:22;2.97;;;2.67;;
1082;SDS011;530;51.448;7.238;2023-04-24T10:11:50;3.80;;;2.30;;
1082;SDS011;530;51.448;7.238;2023-04-24T10:14:21;3.80;;;3.40;;
1082;SDS011;530;51.448;7.238;2023-04-24T10:16:49;3.63;;;3.03;;
1082;SDS011;530;51.448;7.238;2023-04-24T10:19:17;6.80;;;2.70;;
1082;SDS011;530;51.448;7.238;2023-04-24T10:21:46;3.53;;;3.00;;
1082;SDS011;530;51.448;7.238;2023-04-24T10:24:12;3.37;;;3.00;;
1082;SDS011;530;51.448;7.238;2023-04-24T10:26:40;3.87;;;3.37;;
1082;SDS011;530;51.448;7.238;2023-04-24T10:29:06;4.20;;;3.23;;
1082;SDS011;530;51.448;7.238;2023-04-24T10:31:36;3.37;;;3.07;;
1082;SDS011;530;51.448;7.238;2023-04-24T10:34:03;4.63;;;3.87;;
1082;SDS011;530;51.448;7.238;2023-04-24T10:36:30;4.40;;;4.00;;
1082;SDS011;530;51.448;7.238;2023-04-24T10:39:00;4.93;;;4.13;;
1082;SDS011;530;51.448;7.238;2023-04-24T10:41:30;4.53;;;4.13;;
1082;SDS011;530;51.448;7.238;2023-04-24T10:44:09;5.53;;;4.93;;
1082;SDS011;530;51.448;7.238;2023-04-24T10:46:36;5.80;;;4.67;;
1082;SDS011;530;51.448;7.238;2023-04-24T10:49:06;6.43;;;4.80;;
1082;SDS011;530;51.448;7.238;2023-04-24T10:51:52;5.03;;;4.10;;
1082;SDS011;530;51.448;7.238;2023-04-24T10:57:25;6.83;;;5.53;;
1082;SDS011;530;51.448;7.238;2023-04-24T10:59:52;6.83;;;4.80;;
1082;SDS011;530;51.448;7.238;2023-04-24T11:02:41;7.00;;;5.50;;
1082;SDS011;530;51.448;7.238;2023-04-24T11:05:16;8.27;;;6.03;;
1082;SDS011;530;51.448;7.238;2023-04-24T11:08:28;8.90;;;5.80;;
1082;SDS011;530;51.448;7.238;2023-04-24T11:10:43;8.80;;;6.50;;
1082;SDS011;530;51.448;7.238;2023-04-24T11:13:10;9.73;;;5.87;;
1082;SDS011;530;51.448;7.238;2023-04-24T11:15:35;9.00;;;6.50;;
1082;SDS011;530;51.448;7.238;2023-04-24T11:18:01;10.70;;;4.97;;
1082;SDS011;530;51.448;7.238;2023-04-24T11:20:27;6.20;;;5.43;;
1082;SDS011;530;51.448;7.238;2023-04-24T11:22:53;10.43;;;5.97;;
1082;SDS011;530;51.448;7.238;2023-04-24T11:25:20;10.10;;;5.90;;
1082;SDS011;530;51.448;7.238;2023-04-24T11:27:47;10.53;;;5.80;;
1082;SDS011;530;51.448;7.238;2023-04-24T11:30:18;11.83;;;5.53;;
1082;SDS011;530;51.448;7.238;2023-04-24T11:32:50;8.87;;;5.67;;
1082;SDS011;530;51.448;7.238;2023-04-24T11:35:20;8.70;;;6.03;;
1082;SDS011;530;51.448;7.238;2023-04-24T11:37:50;11.03;;;5.70;;
1082;SDS011;530;51.448;7.238;2023-04-24T11:40:19;10.60;;;6.23;;
1082;SDS011;530;51.448;7.238;2023-04-24T11:42:48;10.43;;;7.67;;
1082;SDS011;530;51.448;7.238;2023-04-24T11:45:18;11.50;;;6.40;;
1082;SDS011;530;51.448;7.238;2023-04-24T11:47:48;8.53;;;5.63;;
1082;SDS011;530;51.448;7.238;2023-04-24T11:50:14;9.50;;;5.57;;
1082;SDS011;530;51.448;7.238;2023-04-24T11:52:42;11.87;;;6.20;;
1082;SDS011;530;51.448;7.238;2023-04-24T11:57:45;11.20;;;6.23;;
1082;SDS011;530;51.448;7.238;2023-04-24T12:02:45;8.40;;;5.53;;
1082;SDS011;530;51.448;7.238;2023-04-24T12:05:32;7.57;;;5.30;;
1082;SDS011;530;51.448;7.238;2023-04-24T12:07:57;7.87;;;4.43;;
1082;SDS011;530;51.448;7.238;2023-04-24T12:10:23;5.83;;;4.10;;
1082;SDS011;530;51.448;7.238;2023-04-24T12:12:50;4.43;;;4.00;;
1082;SDS011;530;51.448;7.238;2023-04-24T12:15:18;10.13;;;4.73;;
1082;SDS011;530;51.448;7.238;2023-04-24T12:17:45;6.97;;;4.43;;
1082;SDS011;530;51.448;7.238;2023-04-24T12:20:12;4.57;;;4.17;;
1082;SDS011;530;51.448;7.238;2023-04-24T12:22:51;9.63;;;4.50;;
1082;SDS011;530;51.448;7.238;2023-04-24T12:25:22;7.60;;;4.10;;
1082;SDS011;530;51.448;7.238;2023-04-24T12:28:08;9.17;;;4.73;;
1082;SDS011;530;51.448;7.238;2023-04-24T12:30:42;6.10;;;4.53;;
1082;SDS011;530;51.448;7.238;2023-04-24T12:33:18;7.93;;;5.00;;
1082;SDS011;530;51.448;7.238;2023-04-24T12:35:45;8.23;;;4.63;;
1082;SDS011;530;51.448;7.238;2023-04-24T12:38:13;7.00;;;4.47;;
1082;SDS011;530;51.448;7.238;2023-04-24T12:40:40;10.13;;;4.97;;
1082;SDS011;530;51.448;7.238;2023-04-24T12:43:27;9.20;;;4.80;;
1082;SDS011;530;51.448;7.238;2023-04-24T12:45:52;7.17;;;4.90;;
1082;SDS011;530;51.448;7.238;2023-04-24T12:48:18;6.70;;;4.37;;
1082;SDS011;530;51.448;7.238;2023-04-24T12:50:45;4.50;;;4.10;;
1082;SDS011;530;51.448;7.238;2023-04-24T12:53:10;7.13;;;4.70;;
1082;SDS011;530;51.448;7.238;2023-04-24T12:55:36;6.50;;;3.87;;
1082;SDS011;530;51.448;7.238;2023-04-24T12:58:02;7.93;;;4.17;;
1082;SDS011;530;51.448;7.238;2023-04-24T13:00:28;4.23;;;3.13;;
1082;SDS011;530;51.448;7.238;2023-04-24T13:02:54;6.20;;;4.00;;
1082;SDS011;530;51.448;7.238;2023-04-24T13:05:20;7.00;;;4.07;;
1082;SDS011;530;51.448;7.238;2023-04-24T13:07:46;6.77;;;4.10;;
1082;SDS011;530;51.448;7.238;2023-04-24T13:10:11;5.67;;;3.90;;
1082;SDS011;530;51.448;7.238;2023-04-24T13:12:38;6.70;;;3.77;;
1082;SDS011;530;51.448;7.238;2023-04-24T13:15:04;4.70;;;3.40;;
1082;SDS011;530;51.448;7.238;2023-04-24T13:17:31;6.53;;;3.50;;
1082;SDS011;530;51.448;7.238;2023-04-24T13:19:56;4.73;;;3.63;;
1082;SDS011;530;51.448;7.238;2023-04-24T13:22:22;5.20;;;4.20;;
1082;SDS011;530;51.448;7.238;2023-04-24T13:24:48;5.83;;;3.40;;
1082;SDS011;530;51.448;7.238;2023-04-24T13:27:14;5.27;;;4.00;;
1082;SDS011;530;51.448;7.238;2023-04-24T13:29:41;2.90;;;2.60;;
1082;SDS011;530;51.448;7.238;2023-04-24T13:32:07;4.27;;;3.00;;
1082;SDS011;530;51.448;7.238;2023-04-24T13:34:33;4.40;;;2.90;;
1082;SDS011;530;51.448;7.238;2023-04-24T13:37:02;3.67;;;3.27;;
1082;SDS011;530;51.448;7.238;2023-04-24T13:39:31;4.17;;;2.70;;
1082;SDS011;530;51.448;7.238;2023-04-24T13:41:58;5.13;;;2.20;;
1082;SDS011;530;51.448;7.238;2023-04-24T13:44:23;3.30;;;2.60;;
1082;SDS011;530;51.448;7.238;2023-04-24T13:46:51;3.10;;;2.00;;
1082;SDS011;530;51.448;7.238;2023-04-24T13:49:19;5.23;;;1.80;;
1082;SDS011;530;51.448;7.238;2023-04-24T13:51:45;4.20;;;1.80;;
1082;SDS011;530;51.448;7.238;2023-04-24T13:54:11;2.90;;;1.77;;
1082;SDS011;530;51.448;7.238;2023-04-24T13:56:37;3.23;;;1.60;;
1082;SDS011;530;51.448;7.238;2023-04-24T13:59:04;5.20;;;2.07;;
1082;SDS011;530;51.448;7.238;2023-04-24T14:01:30;3.20;;;2.03;;
1082;SDS011;530;51.448;7.238;2023-04-24T14:03:56;3.67;;;1.80;;
1082;SDS011;530;51.448;7.238;2023-04-24T14:06:22;3.30;;;1.63;;
1082;SDS011;530;51.448;7.238;2023-04-24T14:08:48;2.57;;;2.30;;
1082;SDS011;530;51.448;7.238;2023-04-24T14:11:15;2.30;;;1.53;;
1082;SDS011;530;51.448;7.238;2023-04-24T14:13:41;7.63;;;2.30;;
1082;SDS011;530;51.448;7.238;2023-04-24T14:16:08;3.37;;;1.90;;
1082;SDS011;530;51.448;7.238;2023-04-24T14:18:34;2.30;;;1.73;;
1082;SDS011;530;51.448;7.238;2023-04-24T14:21:01;2.60;;;2.23;;
1082;SDS011;530;51.448;7.238;2023-04-24T14:23:30;3.87;;;1.50;;
1082;SDS011;530;51.448;7.238;2023-04-24T14:25:56;2.50;;;1.63;;
1082;SDS011;530;51.448;7.238;2023-04-24T14:28:22;2.90;;;1.80;;
1082;SDS011;530;51.448;7.238;2023-04-24T14:30:48;2.43;;;1.40;;
1082;SDS011;530;51.448;7.238;2023-04-24T14:33:14;3.37;;;1.87;;
1082;SDS011;530;51.448;7.238;2023-04-24T14:35:40;2.57;;;1.60;;
1082;SDS011;530;51.448;7.238;2023-04-24T14:38:09;3.13;;;1.63;;
1082;SDS011;530;51.448;7.238;2023-04-24T14:40:35;3.57;;;1.43;;
1082;SDS011;530;51.448;7.238;2023-04-24T14:43:02;2.63;;;1.67;;
1082;SDS011;530;51.448;7.238;2023-04-24T14:45:28;1.53;;;1.37;;
1082;SDS011;530;51.448;7.238;2023-04-24T14:47:54;2.20;;;1.50;;
1082;SDS011;530;51.448;7.238;2023-04-24T14:50:20;2.63;;;1.80;;
1082;SDS011;530;51.448;7.238;2023-04-24T14:52:46;2.77;;;1.77;;
1082;SDS011;530;51.448;7.238;2023-04-24T14:55:12;3.00;;;2.63;;
1082;SDS011;530;51.448;7.238;2023-04-24T14:57:39;2.87;;;1.83;;
1082;SDS011;530;51.448;7.238;2023-04-24T15:00:05;2.13;;;1.90;;
1082;SDS011;530;51.448;7.238;2023-04-24T15:02:34;3.60;;;1.80;;
1082;SDS011;530;51.448;7.238;2023-04-24T15:05:01;4.30;;;2.17;;
1082;SDS011;530;51.448;7.238;2023-04-24T15:07:27;3.60;;;2.70;;
1082;SDS011;530;51.448;7.238;2023-04-24T15:09:54;1.63;;;1.50;;
1082;SDS011;530;51.448;7.238;2023-04-24T15:12:19;4.20;;;2.00;;
1082;SDS011;530;51.448;7.238;2023-04-24T15:14:46;3.53;;;1.90;;
1082;SDS011;530;51.448;7.238;2023-04-24T15:17:12;3.73;;;2.07;;
1082;SDS011;530;51.448;7.238;2023-04-24T15:19:38;3.40;;;2.03;;
1082;SDS011;530;51.448;7.238;2023-04-24T15:22:03;3.10;;;1.83;;
1082;SDS011;530;51.448;7.238;2023-04-24T15:24:29;2.73;;;2.27;;
1082;SDS011;530;51.448;7.238;2023-04-24T15:26:55;2.93;;;2.37;;
1082;SDS011;530;51.448;7.238;2023-04-24T15:29:21;5.13;;;3.07;;
1082;SDS011;530;51.448;7.238;2023-04-24T15:31:46;2.30;;;2.10;;
1082;SDS011;530;51.448;7.238;2023-04-24T15:34:12;2.43;;;2.23;;
1082;SDS011;530;51.448;7.238;2023-04-24T15:36:38;2.83;;;2.57;;
1082;SDS011;530;51.448;7.238;2023-04-24T15:39:03;4.70;;;2.40;;
1082;SDS011;530;51.448;7.238;2023-04-24T15:41:29;3.10;;;2.73;;